Terminal Aerodrome Forecast
Issued by NWS Wilmington, OH

Current Version | Previous Version | Text Only | Print | Product List | Glossary Off
Versions: 1 2 3 4 5 6 7 8 9 10 11 12 13 14 15 16 17

903
FTUS41 KILN 181458 AAA
TAFCMH
TAF AMD
KCMH 181458Z 1815/1912 26012KT P6SM FEW030 SCT250
     FM181700 26011G17KT P6SM SCT035
     FM190000 28008KT P6SM FEW150
     FM191100 VRB03KT P6SM BKN070=

USA.gov is the U.S. government's official web portal to all federal, state and local government web resources and services.